sensor_id;sensor_type;location;lat;lon;timestamp;pressure;altitude;pressure_sealevel;temperature;humidity
71043;BME280;58696;52.134;5.500;2023-09-19T00:00:44;100689.44;;;14.00;100.00
71043;BME280;58696;52.134;5.500;2023-09-19T00:03:14;100701.19;;;13.95;100.00
71043;BME280;58696;52.134;5.500;2023-09-19T00:05:41;100702.41;;;13.93;100.00
71043;BME280;58696;52.134;5.500;2023-09-19T00:08:28;100706.78;;;13.92;100.00
71043;BME280;58696;52.134;5.500;2023-09-19T00:10:56;100704.59;;;13.89;100.00
71043;BME280;58696;52.134;5.500;2023-09-19T00:13:22;100710.56;;;13.90;100.00
71043;BME280;58696;52.134;5.500;2023-09-19T00:15:51;100709.78;;;13.89;100.00
71043;BME280;58696;52.134;5.500;2023-09-19T00:18:19;100718.31;;;13.90;100.00
71043;BME280;58696;52.134;5.500;2023-09-19T00:20:48;100714.94;;;13.89;100.00
71043;BME280;58696;52.134;5.500;2023-09-19T00:23:16;100720.09;;;13.89;100.00
71043;BME280;58696;52.134;5.500;2023-09-19T00:25:44;100709.78;;;13.89;100.00
71043;BME280;58696;52.134;5.500;2023-09-19T00:28:17;100719.88;;;13.91;100.00
71043;BME280;58696;52.134;5.500;2023-09-19T00:30:46;100717.31;;;13.91;100.00
71043;BME280;58696;52.134;5.500;2023-09-19T00:33:22;100721.09;;;13.88;100.00
71043;BME280;58696;52.134;5.500;2023-09-19T00:35:52;100718.13;;;13.85;100.00
71043;BME280;58696;52.134;5.500;2023-09-19T00:38:31;100723.50;;;13.83;100.00
71043;BME280;58696;52.134;5.500;2023-09-19T00:41:01;100726.09;;;13.83;100.00
71043;BME280;58696;52.134;5.500;2023-09-19T00:43:31;100727.09;;;13.82;100.00
71043;BME280;58696;52.134;5.500;2023-09-19T00:46:01;100723.13;;;13.86;100.00
71043;BME280;58696;52.134;5.500;2023-09-19T00:48:31;100722.13;;;13.87;100.00
71043;BME280;58696;52.134;5.500;2023-09-19T00:51:02;100730.44;;;13.89;100.00
71043;BME280;58696;52.134;5.500;2023-09-19T00:53:31;100727.84;;;13.89;100.00
71043;BME280;58696;52.134;5.500;2023-09-19T00:56:04;100736.19;;;13.91;100.00
71043;BME280;58696;52.134;5.500;2023-09-19T00:58:35;100732.03;;;13.90;100.00
71043;BME280;58696;52.134;5.500;2023-09-19T01:01:06;100741.75;;;13.95;100.00
71043;BME280;58696;52.134;5.500;2023-09-19T01:03:44;100735.56;;;13.96;100.00
71043;BME280;58696;52.134;5.500;2023-09-19T01:06:11;100738.94;;;13.97;100.00
71043;BME280;58696;52.134;5.500;2023-09-19T01:08:43;100743.72;;;14.00;100.00
71043;BME280;58696;52.134;5.500;2023-09-19T01:11:16;100751.25;;;14.01;100.00
71043;BME280;58696;52.134;5.500;2023-09-19T01:16:45;100746.47;;;14.05;100.00
71043;BME280;58696;52.134;5.500;2023-09-19T01:24:55;100744.28;;;14.02;100.00
71043;BME280;58696;52.134;5.500;2023-09-19T01:30:14;100748.91;;;13.93;100.00
71043;BME280;58696;52.134;5.500;2023-09-19T01:32:46;100749.91;;;13.92;100.00
71043;BME280;58696;52.134;5.500;2023-09-19T01:35:14;100742.97;;;13.92;100.00
71043;BME280;58696;52.134;5.500;2023-09-19T01:37:43;100751.88;;;13.97;100.00
71043;BME280;58696;52.134;5.500;2023-09-19T01:40:15;100744.50;;;14.00;100.00
71043;BME280;58696;52.134;5.500;2023-09-19T01:42:51;100749.44;;;14.02;100.00
71043;BME280;58696;52.134;5.500;2023-09-19T01:48:43;100748.66;;;14.01;100.00
71043;BME280;58696;52.134;5.500;2023-09-19T01:51:22;100749.88;;;13.99;100.00
71043;BME280;58696;52.134;5.500;2023-09-19T01:54:04;100754.66;;;13.95;100.00
71043;BME280;58696;52.134;5.500;2023-09-19T01:56:57;100755.66;;;13.94;100.00
71043;BME280;58696;52.134;5.500;2023-09-19T01:59:35;100760.25;;;13.92;100.00
71043;BME280;58696;52.134;5.500;2023-09-19T02:02:05;100759.44;;;13.91;100.00
71043;BME280;58696;52.134;5.500;2023-09-19T02:04:34;100757.84;;;13.90;100.00
71043;BME280;58696;52.134;5.500;2023-09-19T02:07:03;100759.66;;;13.90;100.00
71043;BME280;58696;52.134;5.500;2023-09-19T02:09:37;100760.88;;;13.87;100.00
71043;BME280;58696;52.134;5.500;2023-09-19T02:12:08;100759.28;;;13.86;100.00
71043;BME280;58696;52.134;5.500;2023-09-19T02:14:35;100754.72;;;13.82;100.00
71043;BME280;58696;52.134;5.500;2023-09-19T02:17:03;100767.03;;;13.80;100.00
71043;BME280;58696;52.134;5.500;2023-09-19T02:19:33;100755.13;;;13.79;100.00
71043;BME280;58696;52.134;5.500;2023-09-19T02:22:01;100751.19;;;13.76;100.00
71043;BME280;58696;52.134;5.500;2023-09-19T02:24:34;100744.81;;;13.72;100.00
71043;BME280;58696;52.134;5.500;2023-09-19T02:27:04;100751.38;;;13.68;100.00
71043;BME280;58696;52.134;5.500;2023-09-19T02:29:34;100754.97;;;13.67;100.00
71043;BME280;58696;52.134;5.500;2023-09-19T02:32:01;100766.31;;;13.66;100.00
71043;BME280;58696;52.134;5.500;2023-09-19T02:34:33;100765.69;;;13.64;100.00
71043;BME280;58696;52.134;5.500;2023-09-19T02:37:08;100769.28;;;13.63;100.00
71043;BME280;58696;52.134;5.500;2023-09-19T02:39:42;100772.03;;;13.68;100.00
71043;BME280;58696;52.134;5.500;2023-09-19T02:42:11;100764.31;;;13.68;100.00
71043;BME280;58696;52.134;5.500;2023-09-19T02:44:40;100768.88;;;13.66;100.00
71043;BME280;58696;52.134;5.500;2023-09-19T02:47:08;100767.69;;;13.62;100.00
71043;BME280;58696;52.134;5.500;2023-09-19T02:49:38;100769.50;;;13.55;100.00
71043;BME280;58696;52.134;5.500;2023-09-19T02:52:09;100770.50;;;13.47;100.00
71043;BME280;58696;52.134;5.500;2023-09-19T02:54:37;100775.50;;;13.42;100.00
71043;BME280;58696;52.134;5.500;2023-09-19T02:57:04;100777.09;;;13.36;100.00
71043;BME280;58696;52.134;5.500;2023-09-19T02:59:33;100770.56;;;13.34;100.00
71043;BME280;58696;52.134;5.500;2023-09-19T03:02:00;100777.09;;;13.30;100.00
71043;BME280;58696;52.134;5.500;2023-09-19T03:04:33;100777.91;;;13.24;100.00
71043;BME280;58696;52.134;5.500;2023-09-19T03:07:03;100780.06;;;13.20;100.00
71043;BME280;58696;52.134;5.500;2023-09-19T03:09:35;100768.16;;;13.19;100.00
71043;BME280;58696;52.134;5.500;2023-09-19T03:12:01;100773.53;;;13.18;100.00
71043;BME280;58696;52.134;5.500;2023-09-19T03:14:33;100769.97;;;13.12;100.00
71043;BME280;58696;52.134;5.500;2023-09-19T03:17:04;100763.00;;;13.06;100.00
71043;BME280;58696;52.134;5.500;2023-09-19T03:19:35;100767.78;;;13.02;100.00
71043;BME280;58696;52.134;5.500;2023-09-19T03:22:09;100767.38;;;12.99;100.00
71043;BME280;58696;52.134;5.500;2023-09-19T03:24:36;100771.34;;;12.95;100.00
71043;BME280;58696;52.134;5.500;2023-09-19T03:27:06;100769.56;;;12.88;100.00
71043;BME280;58696;52.134;5.500;2023-09-19T03:29:40;100774.31;;;12.85;100.00
71043;BME280;58696;52.134;5.500;2023-09-19T03:32:06;100773.72;;;12.83;100.00
71043;BME280;58696;52.134;5.500;2023-09-19T03:34:33;100771.75;;;12.78;100.00
71043;BME280;58696;52.134;5.500;2023-09-19T03:37:00;100778.88;;;12.76;100.00
71043;BME280;58696;52.134;5.500;2023-09-19T03:39:28;100773.13;;;12.74;100.00
71043;BME280;58696;52.134;5.500;2023-09-19T03:41:56;100774.91;;;12.74;100.00
71043;BME280;58696;52.134;5.500;2023-09-19T03:44:23;100767.19;;;12.67;100.00
71043;BME280;58696;52.134;5.500;2023-09-19T03:46:49;100764.00;;;12.65;100.00
71043;BME280;58696;52.134;5.500;2023-09-19T03:49:18;100763.59;;;12.61;100.00
71043;BME280;58696;52.134;5.500;2023-09-19T03:51:50;100756.25;;;12.58;100.00
71043;BME280;58696;52.134;5.500;2023-09-19T03:54:16;100758.25;;;12.56;100.00
71043;BME280;58696;52.134;5.500;2023-09-19T03:56:46;100765.38;;;12.54;100.00
71043;BME280;58696;52.134;5.500;2023-09-19T03:59:15;100762.19;;;12.52;100.00
71043;BME280;58696;52.134;5.500;2023-09-19T04:01:47;100767.56;;;12.51;100.00
71043;BME280;58696;52.134;5.500;2023-09-19T04:04:16;100779.84;;;12.49;100.00
71043;BME280;58696;52.134;5.500;2023-09-19T04:06:47;100783.19;;;12.49;100.00
71043;BME280;58696;52.134;5.500;2023-09-19T04:09:16;100787.56;;;12.49;100.00
71043;BME280;58696;52.134;5.500;2023-09-19T04:11:48;100788.75;;;12.46;100.00
71043;BME280;58696;52.134;5.500;2023-09-19T04:14:18;100791.94;;;12.48;100.00
71043;BME280;58696;52.134;5.500;2023-09-19T04:16:45;100798.44;;;12.44;100.00
71043;BME280;58696;52.134;5.500;2023-09-19T04:19:15;100796.06;;;12.43;100.00
71043;BME280;58696;52.134;5.500;2023-09-19T04:21:45;100793.50;;;12.43;100.00
71043;BME280;58696;52.134;5.500;2023-09-19T04:24:11;100801.63;;;12.40;100.00
71043;BME280;58696;52.134;5.500;2023-09-19T04:26:39;100811.13;;;12.39;100.00
71043;BME280;58696;52.134;5.500;2023-09-19T04:29:06;100804.00;;;12.41;100.00
71043;BME280;58696;52.134;5.500;2023-09-19T04:31:37;100808.75;;;12.44;100.00
71043;BME280;58696;52.134;5.500;2023-09-19T04:34:09;100813.13;;;12.44;100.00
71043;BME280;58696;52.134;5.500;2023-09-19T04:36:39;100823.63;;;12.42;100.00
71043;BME280;58696;52.134;5.500;2023-09-19T04:39:10;100824.00;;;12.39;100.00
71043;BME280;58696;52.134;5.500;2023-09-19T04:41:39;100835.53;;;12.36;100.00
71043;BME280;58696;52.134;5.500;2023-09-19T04:44:09;100846.63;;;12.37;100.00
71043;BME280;58696;52.134;5.500;2023-09-19T04:46:41;100853.34;;;12.38;100.00
71043;BME280;58696;52.134;5.500;2023-09-19T04:49:11;100845.25;;;12.41;100.00
71043;BME280;58696;52.134;5.500;2023-09-19T04:51:39;100842.88;;;12.40;100.00
71043;BME280;58696;52.134;5.500;2023-09-19T04:54:06;100842.88;;;12.40;100.00
71043;BME280;58696;52.134;5.500;2023-09-19T04:56:33;100839.69;;;12.37;100.00
71043;BME280;58696;52.134;5.500;2023-09-19T04:59:04;100840.66;;;12.36;100.00
71043;BME280;58696;52.134;5.500;2023-09-19T05:01:31;100824.63;;;12.34;100.00
71043;BME280;58696;52.134;5.500;2023-09-19T05:04:02;100829.78;;;12.34;100.00
71043;BME280;58696;52.134;5.500;2023-09-19T05:06:33;100830.94;;;12.32;100.00
71043;BME280;58696;52.134;5.500;2023-09-19T05:09:00;100836.28;;;12.30;100.00
71043;BME280;58696;52.134;5.500;2023-09-19T05:11:28;100842.44;;;12.29;100.00
71043;BME280;58696;52.134;5.500;2023-09-19T05:13:59;100843.81;;;12.32;100.00
71043;BME280;58696;52.134;5.500;2023-09-19T05:16:30;100841.25;;;12.32;100.00
71043;BME280;58696;52.134;5.500;2023-09-19T05:18:58;100845.59;;;12.31;100.00
71043;BME280;58696;52.134;5.500;2023-09-19T05:21:28;100832.34;;;12.34;100.00
71043;BME280;58696;52.134;5.500;2023-09-19T05:23:59;100844.25;;;12.35;100.00
71043;BME280;58696;52.134;5.500;2023-09-19T05:26:26;100839.47;;;12.39;100.00
71043;BME280;58696;52.134;5.500;2023-09-19T05:28:55;100841.69;;;12.42;100.00
71043;BME280;58696;52.134;5.500;2023-09-19T05:31:21;100844.06;;;12.44;100.00
71043;BME280;58696;52.134;5.500;2023-09-19T05:33:49;100840.50;;;12.45;100.00
71043;BME280;58696;52.134;5.500;2023-09-19T05:36:18;100836.53;;;12.49;100.00
71043;BME280;58696;52.134;5.500;2023-09-19T05:38:45;100841.31;;;12.52;100.00
71043;BME280;58696;52.134;5.500;2023-09-19T05:41:15;100832.22;;;12.56;100.00
71043;BME280;58696;52.134;5.500;2023-09-19T05:43:44;100841.13;;;12.60;100.00
71043;BME280;58696;52.134;5.500;2023-09-19T05:46:13;100837.38;;;12.62;100.00
71043;BME280;58696;52.134;5.500;2023-09-19T05:48:42;100845.69;;;12.64;100.00
71043;BME280;58696;52.134;5.500;2023-09-19T05:51:10;100845.50;;;12.66;100.00
71043;BME280;58696;52.134;5.500;2023-09-19T05:53:37;100843.91;;;12.65;100.00
71043;BME280;58696;52.134;5.500;2023-09-19T05:56:04;100850.28;;;12.69;100.00
71043;BME280;58696;52.134;5.500;2023-09-19T05:58:30;100855.84;;;12.73;100.00
71043;BME280;58696;52.134;5.500;2023-09-19T06:00:57;100870.72;;;12.77;100.00
71043;BME280;58696;52.134;5.500;2023-09-19T06:03:28;100859.25;;;12.86;100.00
71043;BME280;58696;52.134;5.500;2023-09-19T06:06:00;100861.03;;;12.93;100.00
71043;BME280;58696;52.134;5.500;2023-09-19T06:08:27;100859.84;;;12.95;100.00
71043;BME280;58696;52.134;5.500;2023-09-19T06:10:58;100862.81;;;12.99;100.00
71043;BME280;58696;52.134;5.500;2023-09-19T06:13:28;100867.22;;;13.05;99.86
71043;BME280;58696;52.134;5.500;2023-09-19T06:15:55;100870.97;;;13.09;99.54
71043;BME280;58696;52.134;5.500;2023-09-19T06:18:26;100873.75;;;13.14;99.46
71043;BME280;58696;52.134;5.500;2023-09-19T06:20:56;100877.31;;;13.20;99.66
71043;BME280;58696;52.134;5.500;2023-09-19T06:23:23;100870.81;;;13.24;99.47
71043;BME280;58696;52.134;5.500;2023-09-19T06:25:56;100874.38;;;13.29;99.71
71043;BME280;58696;52.134;5.500;2023-09-19T06:28:28;100877.16;;;13.34;99.33
71043;BME280;58696;52.134;5.500;2023-09-19T06:30:55;100881.31;;;13.42;99.23
71043;BME280;58696;52.134;5.500;2023-09-19T06:33:23;100871.59;;;13.51;98.96
71043;BME280;58696;52.134;5.500;2023-09-19T06:35:50;100874.38;;;13.56;99.18
71043;BME280;58696;52.134;5.500;2023-09-19T06:38:19;100872.78;;;13.61;98.91
71043;BME280;58696;52.134;5.500;2023-09-19T06:40:50;100870.19;;;13.68;98.77
71043;BME280;58696;52.134;5.500;2023-09-19T06:43:23;100868.00;;;13.72;98.95
71043;BME280;58696;52.134;5.500;2023-09-19T06:45:53;100870.78;;;13.77;98.88
71043;BME280;58696;52.134;5.500;2023-09-19T06:48:23;100863.00;;;13.83;98.86
71043;BME280;58696;52.134;5.500;2023-09-19T06:50:55;100869.16;;;13.89;99.10
71043;BME280;58696;52.134;5.500;2023-09-19T06:53:22;100867.56;;;13.94;98.95
71043;BME280;58696;52.134;5.500;2023-09-19T06:55:51;100869.31;;;14.01;99.04
71043;BME280;58696;52.134;5.500;2023-09-19T06:58:23;100872.88;;;14.06;98.65
71043;BME280;58696;52.134;5.500;2023-09-19T07:00:52;100852.19;;;14.13;99.18
71043;BME280;58696;52.134;5.500;2023-09-19T07:03:18;100861.13;;;14.17;99.03
71043;BME280;58696;52.134;5.500;2023-09-19T07:05:50;100867.88;;;14.25;98.54
71043;BME280;58696;52.134;5.500;2023-09-19T07:08:19;100865.44;;;14.30;98.55
71043;BME280;58696;52.134;5.500;2023-09-19T07:10:46;100870.78;;;14.35;98.51
71043;BME280;58696;52.134;5.500;2023-09-19T07:13:16;100873.16;;;14.43;98.36
71043;BME280;58696;52.134;5.500;2023-09-19T07:15:44;100869.56;;;14.44;97.89
71043;BME280;58696;52.134;5.500;2023-09-19T07:18:16;100874.53;;;14.52;97.59
71043;BME280;58696;52.134;5.500;2023-09-19T07:20:44;100873.47;;;14.60;97.79
71043;BME280;58696;52.134;5.500;2023-09-19T07:23:17;100879.84;;;14.64;97.52
71043;BME280;58696;52.134;5.500;2023-09-19T07:25:45;100881.59;;;14.70;97.49
71043;BME280;58696;52.134;5.500;2023-09-19T07:28:12;100884.34;;;14.75;97.23
71043;BME280;58696;52.134;5.500;2023-09-19T07:30:39;100892.47;;;14.85;96.79
71043;BME280;58696;52.134;5.500;2023-09-19T07:33:07;100887.81;;;14.94;96.73
71043;BME280;58696;52.134;5.500;2023-09-19T07:35:33;100898.53;;;14.97;96.16
71043;BME280;58696;52.134;5.500;2023-09-19T07:38:00;100895.13;;;15.04;96.18
71043;BME280;58696;52.134;5.500;2023-09-19T07:40:30;100901.97;;;15.16;95.61
71043;BME280;58696;52.134;5.500;2023-09-19T07:43:00;100895.31;;;15.34;94.90
71043;BME280;58696;52.134;5.500;2023-09-19T07:45:31;100901.09;;;15.79;93.14
71043;BME280;58696;52.134;5.500;2023-09-19T07:47:58;100893.06;;;16.06;91.67
71043;BME280;58696;52.134;5.500;2023-09-19T07:50:28;100894.94;;;16.47;91.42
71043;BME280;58696;52.134;5.500;2023-09-19T07:52:57;100893.78;;;16.91;88.38
71043;BME280;58696;52.134;5.500;2023-09-19T07:55:25;100894.84;;;17.25;87.41
71043;BME280;58696;52.134;5.500;2023-09-19T07:57:52;100894.28;;;17.70;84.27
71043;BME280;58696;52.134;5.500;2023-09-19T08:00:21;100901.97;;;17.88;83.70
71043;BME280;58696;52.134;5.500;2023-09-19T08:02:48;100898.94;;;17.92;83.17
71043;BME280;58696;52.134;5.500;2023-09-19T08:05:24;100898.25;;;17.61;83.80
71043;BME280;58696;52.134;5.500;2023-09-19T08:07:51;100903.44;;;17.61;84.48
71043;BME280;58696;52.134;5.500;2023-09-19T08:10:19;100913.28;;;17.71;84.00
71043;BME280;58696;52.134;5.500;2023-09-19T08:12:48;100904.47;;;17.95;83.33
71043;BME280;58696;52.134;5.500;2023-09-19T08:15:17;100900.63;;;17.98;82.50
71043;BME280;58696;52.134;5.500;2023-09-19T08:17:47;100911.53;;;18.23;82.01
71043;BME280;58696;52.134;5.500;2023-09-19T08:20:17;100919.13;;;18.53;80.97
71043;BME280;58696;52.134;5.500;2023-09-19T08:25:15;100910.34;;;18.02;84.42
71043;BME280;58696;52.134;5.500;2023-09-19T08:27:48;100902.47;;;17.74;83.82
71043;BME280;58696;52.134;5.500;2023-09-19T08:30:19;100907.97;;;17.66;83.97
71043;BME280;58696;52.134;5.500;2023-09-19T08:33:01;100906.94;;;17.67;83.76
71043;BME280;58696;52.134;5.500;2023-09-19T08:35:37;100914.63;;;17.50;84.02
71043;BME280;58696;52.134;5.500;2023-09-19T08:38:08;100901.19;;;17.29;85.36
71043;BME280;58696;52.134;5.500;2023-09-19T08:40:39;100905.25;;;17.49;85.30
71043;BME280;58696;52.134;5.500;2023-09-19T08:43:13;100907.97;;;17.42;85.97
71043;BME280;58696;52.134;5.500;2023-09-19T08:45:42;100893.75;;;17.56;83.92
71043;BME280;58696;52.134;5.500;2023-09-19T08:51:07;100892.94;;;17.91;84.83
71043;BME280;58696;52.134;5.500;2023-09-19T08:53:46;100903.00;;;17.87;84.11
71043;BME280;58696;52.134;5.500;2023-09-19T08:56:18;100894.19;;;17.77;83.98
71043;BME280;58696;52.134;5.500;2023-09-19T08:58:53;100892.38;;;17.77;83.73
71043;BME280;58696;52.134;5.500;2023-09-19T09:01:27;100893.06;;;17.84;82.78
71043;BME280;58696;52.134;5.500;2023-09-19T09:03:57;100894.38;;;18.10;81.33
71043;BME280;58696;52.134;5.500;2023-09-19T09:06:25;100890.06;;;18.16;81.29
71043;BME280;58696;52.134;5.500;2023-09-19T09:08:55;100899.13;;;18.13;81.68
71043;BME280;58696;52.134;5.500;2023-09-19T09:11:22;100895.44;;;18.26;82.31
71043;BME280;58696;52.134;5.500;2023-09-19T09:13:53;100904.88;;;18.16;82.79
71043;BME280;58696;52.134;5.500;2023-09-19T09:16:20;100905.16;;;17.91;83.91
71043;BME280;58696;52.134;5.500;2023-09-19T09:18:52;100903.47;;;17.84;82.35
71043;BME280;58696;52.134;5.500;2023-09-19T09:21:22;100905.47;;;17.71;83.25
71043;BME280;58696;52.134;5.500;2023-09-19T09:23:52;100897.38;;;17.67;83.58
71043;BME280;58696;52.134;5.500;2023-09-19T09:29:06;100892.16;;;17.44;83.87
71043;BME280;58696;52.134;5.500;2023-09-19T09:31:34;100887.19;;;17.54;83.02
71043;BME280;58696;52.134;5.500;2023-09-19T09:34:01;100890.25;;;17.74;83.47
71043;BME280;58696;52.134;5.500;2023-09-19T09:36:40;100884.81;;;17.87;81.89
71043;BME280;58696;52.134;5.500;2023-09-19T09:39:08;100874.19;;;17.89;82.71
71043;BME280;58696;52.134;5.500;2023-09-19T09:41:56;100880.91;;;18.13;82.03
71043;BME280;58696;52.134;5.500;2023-09-19T09:44:28;100868.44;;;18.27;78.94
71043;BME280;58696;52.134;5.500;2023-09-19T09:46:58;100865.06;;;18.27;80.56
71043;BME280;58696;52.134;5.500;2023-09-19T09:49:49;100868.69;;;18.43;79.23
71043;BME280;58696;52.134;5.500;2023-09-19T09:52:44;100862.41;;;18.38;78.46
71043;BME280;58696;52.134;5.500;2023-09-19T09:55:11;100863.78;;;18.29;78.64
71043;BME280;58696;52.134;5.500;2023-09-19T09:57:37;100864.72;;;18.23;79.03
71043;BME280;58696;52.134;5.500;2023-09-19T10:00:09;100860.41;;;18.29;81.49
71043;BME280;58696;52.134;5.500;2023-09-19T10:02:39;100868.84;;;18.36;79.79
71043;BME280;58696;52.134;5.500;2023-09-19T10:07:54;100865.31;;;18.13;79.82
71043;BME280;58696;52.134;5.500;2023-09-19T10:10:36;100864.41;;;18.08;80.07
71043;BME280;58696;52.134;5.500;2023-09-19T10:13:11;100860.19;;;18.19;80.37
71043;BME280;58696;52.134;5.500;2023-09-19T10:15:48;100873.94;;;18.31;79.97
71043;BME280;58696;52.134;5.500;2023-09-19T10:18:26;100872.19;;;18.20;80.01
71043;BME280;58696;52.134;5.500;2023-09-19T10:20:59;100873.72;;;17.92;80.34
71043;BME280;58696;52.134;5.500;2023-09-19T10:23:31;100874.06;;;17.60;80.65
71043;BME280;58696;52.134;5.500;2023-09-19T10:26:01;100871.47;;;17.60;81.70
71043;BME280;58696;52.134;5.500;2023-09-19T10:28:32;100863.47;;;17.62;80.52
71043;BME280;58696;52.134;5.500;2023-09-19T10:31:00;100869.00;;;17.54;80.26
71043;BME280;58696;52.134;5.500;2023-09-19T10:33:35;100859.72;;;17.70;82.04
71043;BME280;58696;52.134;5.500;2023-09-19T10:36:05;100868.38;;;17.99;79.98
71043;BME280;58696;52.134;5.500;2023-09-19T10:38:37;100857.25;;;18.15;79.28
71043;BME280;58696;52.134;5.500;2023-09-19T10:41:07;100851.00;;;18.28;80.50
71043;BME280;58696;52.134;5.500;2023-09-19T10:43:41;100846.25;;;18.53;78.71
71043;BME280;58696;52.134;5.500;2023-09-19T10:46:12;100838.09;;;18.78;79.50
71043;BME280;58696;52.134;5.500;2023-09-19T10:48:42;100842.91;;;18.86;78.46
71043;BME280;58696;52.134;5.500;2023-09-19T10:51:19;100838.28;;;18.72;77.35
71043;BME280;58696;52.134;5.500;2023-09-19T10:54:01;100826.28;;;18.42;78.29
71043;BME280;58696;52.134;5.500;2023-09-19T10:56:36;100831.44;;;18.25;79.24
71043;BME280;58696;52.134;5.500;2023-09-19T10:59:14;100818.97;;;18.10;79.75
71043;BME280;58696;52.134;5.500;2023-09-19T11:01:57;100817.97;;;18.28;80.03
71043;BME280;58696;52.134;5.500;2023-09-19T11:04:36;100808.69;;;18.32;80.00
71043;BME280;58696;52.134;5.500;2023-09-19T11:07:09;100819.81;;;18.45;81.10
71043;BME280;58696;52.134;5.500;2023-09-19T11:16:02;100809.06;;;18.70;77.82
71043;BME280;58696;52.134;5.500;2023-09-19T11:17:59;100810.41;;;18.72;78.74
71043;BME280;58696;52.134;5.500;2023-09-19T11:20:26;100804.44;;;18.72;77.50
71043;BME280;58696;52.134;5.500;2023-09-19T11:25:42;100797.75;;;18.64;77.63
71043;BME280;58696;52.134;5.500;2023-09-19T11:28:27;100800.09;;;18.77;77.34
71043;BME280;58696;52.134;5.500;2023-09-19T11:30:57;100791.63;;;19.04;78.16
71043;BME280;58696;52.134;5.500;2023-09-19T11:36:12;100800.44;;;19.20;74.30
71043;BME280;58696;52.134;5.500;2023-09-19T11:41:41;100811.81;;;18.97;77.73
71043;BME280;58696;52.134;5.500;2023-09-19T11:46:53;100780.38;;;18.53;77.22
71043;BME280;58696;52.134;5.500;2023-09-19T11:49:31;100788.09;;;18.31;76.62
71043;BME280;58696;52.134;5.500;2023-09-19T11:52:04;100778.94;;;18.28;76.42
71043;BME280;58696;52.134;5.500;2023-09-19T11:54:40;100786.47;;;18.58;76.36
71043;BME280;58696;52.134;5.500;2023-09-19T11:57:08;100772.72;;;19.13;75.62
71043;BME280;58696;52.134;5.500;2023-09-19T11:59:38;100767.19;;;19.27;75.00
71043;BME280;58696;52.134;5.500;2023-09-19T12:02:11;100776.16;;;19.36;76.33
71043;BME280;58696;52.134;5.500;2023-09-19T12:04:44;100772.78;;;19.18;74.20
71043;BME280;58696;52.134;5.500;2023-09-19T12:07:15;100790.28;;;19.01;73.43
71043;BME280;58696;52.134;5.500;2023-09-19T12:09:50;100800.47;;;18.86;75.10
71043;BME280;58696;52.134;5.500;2023-09-19T12:12:22;100795.25;;;18.69;74.54
71043;BME280;58696;52.134;5.500;2023-09-19T12:14:54;100805.97;;;18.56;74.15
71043;BME280;58696;52.134;5.500;2023-09-19T12:17:21;100812.88;;;18.50;75.09
71043;BME280;58696;52.134;5.500;2023-09-19T12:19:53;100793.81;;;18.61;75.28
71043;BME280;58696;52.134;5.500;2023-09-19T12:22:22;100803.94;;;18.75;74.63
71043;BME280;58696;52.134;5.500;2023-09-19T12:24:48;100790.84;;;18.70;74.88
71043;BME280;58696;52.134;5.500;2023-09-19T12:27:17;100778.16;;;18.73;73.96
71043;BME280;58696;52.134;5.500;2023-09-19T12:29:48;100801.81;;;18.72;74.45
71043;BME280;58696;52.134;5.500;2023-09-19T12:32:36;100795.94;;;18.64;74.08
71043;BME280;58696;52.134;5.500;2023-09-19T12:35:08;100797.44;;;18.60;73.88
71043;BME280;58696;52.134;5.500;2023-09-19T12:37:43;100782.53;;;18.56;75.63
71043;BME280;58696;52.134;5.500;2023-09-19T12:40:16;100784.50;;;18.49;74.65
71043;BME280;58696;52.134;5.500;2023-09-19T12:42:49;100784.81;;;18.52;75.09
71043;BME280;58696;52.134;5.500;2023-09-19T12:45:16;100785.38;;;18.54;76.04
71043;BME280;58696;52.134;5.500;2023-09-19T12:51:12;100791.72;;;18.30;76.55
71043;BME280;58696;52.134;5.500;2023-09-19T12:53:43;100794.38;;;18.18;77.83
71043;BME280;58696;52.134;5.500;2023-09-19T12:56:18;100792.63;;;18.07;77.22
71043;BME280;58696;52.134;5.500;2023-09-19T12:58:53;100795.47;;;18.05;78.65
71043;BME280;58696;52.134;5.500;2023-09-19T13:01:24;100792.63;;;18.07;77.31
71043;BME280;58696;52.134;5.500;2023-09-19T13:04:23;100793.50;;;18.12;77.69
71043;BME280;58696;52.134;5.500;2023-09-19T13:06:54;100806.34;;;18.19;78.46
71043;BME280;58696;52.134;5.500;2023-09-19T13:09:27;100781.22;;;18.25;76.56
71043;BME280;58696;52.134;5.500;2023-09-19T13:12:05;100791.34;;;18.38;76.35
71043;BME280;58696;52.134;5.500;2023-09-19T13:14:33;100787.41;;;18.52;75.70
71043;BME280;58696;52.134;5.500;2023-09-19T13:17:13;100785.22;;;18.61;76.60
71043;BME280;58696;52.134;5.500;2023-09-19T13:19:47;100782.78;;;18.54;77.39
71043;BME280;58696;52.134;5.500;2023-09-19T13:25:11;100785.34;;;18.37;77.99
71043;BME280;58696;52.134;5.500;2023-09-19T13:27:42;100794.22;;;18.25;78.27
71043;BME280;58696;52.134;5.500;2023-09-19T13:30:15;100796.88;;;18.13;78.06
71043;BME280;58696;52.134;5.500;2023-09-19T13:32:42;100793.41;;;18.07;78.87
71043;BME280;58696;52.134;5.500;2023-09-19T13:35:12;100798.75;;;18.01;79.15
71043;BME280;58696;52.134;5.500;2023-09-19T13:37:42;100800.09;;;18.03;79.12
71043;BME280;58696;52.134;5.500;2023-09-19T13:40:13;100797.41;;;18.27;78.87
71043;BME280;58696;52.134;5.500;2023-09-19T13:42:41;100789.13;;;18.47;79.81
71043;BME280;58696;52.134;5.500;2023-09-19T13:45:08;100777.78;;;18.53;79.60
71043;BME280;58696;52.134;5.500;2023-09-19T13:47:43;100789.06;;;18.58;78.34
71043;BME280;58696;52.134;5.500;2023-09-19T13:50:11;100781.13;;;18.65;78.71
71043;BME280;58696;52.134;5.500;2023-09-19T13:52:43;100770.00;;;18.70;78.17